Time;durP1;ratioP1;P1;durP2;ratioP2;P2;SDS_P1;SDS_P2;PMS_P1;PMS_P2;Temp;Humidity;BMP_temperature;BMP_pressure;BME280_temperature;BME280_humidity;BME280_pressure;Samples;Min_cycle;Max_cycle;Signal;HPM_P1;HPM_P2
2021/08/26 00:00:52;;;;;;;2.13;0.80;;;;;;;18.98;100.00;97171.84;5052418;28;20540;-75
2021/08/26 00:06:01;;;;;;;1.08;0.60;;;;;;;18.86;100.00;97173.09;5053501;28;20027;-75
2021/08/26 00:08:27;;;;;;;1.63;0.77;;;;;;;18.77;100.00;97160.47;5071634;28;20045;-75
2021/08/26 00:10:53;;;;;;;0.93;0.50;;;;;;;18.81;100.00;97157.31;5055359;28;20061;-75
2021/08/26 00:13:21;;;;;;;1.55;0.63;;;;;;;18.83;100.00;97162.56;5055471;28;20514;-75
2021/08/26 00:15:46;;;;;;;0.80;0.80;;;;;;;18.71;100.00;97137.56;5051944;28;20499;-75
2021/08/26 00:18:15;;;;;;;2.05;0.80;;;;;;;18.72;100.00;97143.84;5051372;28;20093;-75
2021/08/26 00:20:41;;;;;;;1.15;0.57;;;;;;;18.65;100.00;97142.75;5055551;28;20032;-75
2021/08/26 00:23:06;;;;;;;13.20;9.10;;;;;;;18.71;100.00;97158.38;5051799;28;20103;-75
2021/08/26 00:25:32;;;;;;;14.50;10.18;;;;;;;18.55;100.00;97150.94;5045766;28;20107;-75
2021/08/26 00:27:58;;;;;;;14.35;9.50;;;;;;;18.58;100.00;97166.06;5072783;28;20040;-75
2021/08/26 00:30:23;;;;;;;11.52;8.80;;;;;;;18.55;100.00;97163.66;5054928;28;20032;-75
2021/08/26 00:32:49;;;;;;;11.15;8.73;;;;;;;18.44;100.00;97164.69;5072905;28;20423;-76
2021/08/26 00:35:14;;;;;;;11.77;7.07;;;;;;;18.29;100.00;97166.22;5051442;28;20067;-75
2021/08/26 00:37:40;;;;;;;9.25;6.47;;;;;;;18.33;100.00;97165.75;5057194;28;20431;-75
2021/08/26 00:40:06;;;;;;;8.68;6.95;;;;;;;18.25;100.00;97148.56;5038201;28;20498;-75
2021/08/26 00:42:32;;;;;;;15.75;7.85;;;;;;;18.23;100.00;97145.16;5052901;28;20451;-75
2021/08/26 00:44:57;;;;;;;9.25;7.45;;;;;;;18.24;100.00;97150.41;5072833;28;20074;-75
2021/08/26 00:47:26;;;;;;;11.68;8.05;;;;;;;18.18;100.00;97147.47;5034251;28;20025;-75
2021/08/26 00:49:55;;;;;;;11.45;8.10;;;;;;;18.02;100.00;97137.31;5034898;28;20027;-75
2021/08/26 00:52:21;;;;;;;19.45;9.38;;;;;;;18.06;100.00;97137.84;5052539;28;20029;-75
2021/08/26 00:54:47;;;;;;;14.25;9.30;;;;;;;18.10;100.00;97141.94;5072282;28;20083;-75
2021/08/26 00:57:12;;;;;;;13.65;9.38;;;;;;;17.94;100.00;97130.94;5054755;28;20050;-75
2021/08/26 00:59:38;;;;;;;13.88;8.65;;;;;;;17.95;100.00;97132.63;5054249;28;20038;-75
2021/08/26 01:02:17;;;;;;;15.85;9.63;;;;;;;17.85;100.00;97141.66;5037768;28;20419;-75
2021/08/26 01:04:56;;;;;;;17.33;8.90;;;;;;;17.90;100.00;97143.06;5054652;28;20071;-75
2021/08/26 01:07:28;;;;;;;12.77;8.75;;;;;;;17.94;100.00;97153.44;5050863;28;20017;-75
2021/08/26 01:10:04;;;;;;;14.68;8.98;;;;;;;17.90;100.00;97148.50;5052087;28;20057;-75
2021/08/26 01:12:30;;;;;;;15.40;9.27;;;;;;;17.84;100.00;97139.13;5034480;28;20054;-75
2021/08/26 01:14:56;;;;;;;15.70;9.45;;;;;;;17.92;100.00;97144.63;5051000;28;20035;-75
2021/08/26 01:17:29;;;;;;;16.77;10.20;;;;;;;17.98;100.00;97154.00;5051372;28;20408;-75
2021/08/26 01:19:56;;;;;;;14.23;9.13;;;;;;;17.94;100.00;97155.28;5054440;28;20089;-75
2021/08/26 01:22:27;;;;;;;13.23;9.80;;;;;;;18.02;100.00;97155.41;5050688;28;20031;-75
2021/08/26 01:25:05;;;;;;;14.30;9.68;;;;;;;18.11;100.00;97155.34;5034322;28;20048;-75
2021/08/26 01:27:36;;;;;;;14.32;10.05;;;;;;;18.13;100.00;97156.03;5051739;28;20028;-75
2021/08/26 01:30:04;;;;;;;14.07;9.85;;;;;;;18.16;100.00;97155.75;5035314;28;20078;-75
2021/08/26 01:32:30;;;;;;;17.70;9.73;;;;;;;18.13;100.00;97153.34;5033852;28;20408;-75
2021/08/26 01:34:56;;;;;;;20.13;10.35;;;;;;;18.24;100.00;97163.13;5063394;28;20029;-75
2021/08/26 01:37:23;;;;;;;14.30;10.10;;;;;;;18.09;100.00;97151.09;5053826;28;20025;-75
2021/08/26 01:39:49;;;;;;;13.82;8.98;;;;;;;18.10;100.00;97144.66;5053676;28;20025;-75
2021/08/26 01:42:15;;;;;;;16.92;9.98;;;;;;;18.03;100.00;97138.13;5070491;28;20574;-75
2021/08/26 01:44:41;;;;;;;15.23;9.60;;;;;;;17.96;100.00;97134.34;5051322;28;20035;-75
2021/08/26 01:47:16;;;;;;;18.83;10.07;;;;;;;17.96;100.00;97135.22;5071546;28;20036;-75
2021/08/26 01:49:43;;;;;;;18.48;11.77;;;;;;;17.75;100.00;97119.19;5053928;28;20021;-75
2021/08/26 01:52:09;;;;;;;17.27;11.82;;;;;;;17.76;100.00;97134.44;5053528;28;20036;-75
2021/08/26 01:54:35;;;;;;;23.88;12.27;;;;;;;17.76;100.00;97137.16;5036780;28;20031;-75
2021/08/26 01:57:01;;;;;;;19.98;11.77;;;;;;;17.69;100.00;97127.91;5053934;28;20380;-75
2021/08/26 01:59:27;;;;;;;23.35;13.05;;;;;;;17.64;100.00;97135.63;5055398;28;20032;-75
2021/08/26 02:01:52;;;;;;;22.95;11.98;;;;;;;17.65;100.00;97142.75;5057802;28;20021;-75
2021/08/26 02:04:18;;;;;;;23.02;12.88;;;;;;;17.58;100.00;97138.09;5054469;28;20033;-75
2021/08/26 02:06:43;;;;;;;22.73;13.30;;;;;;;17.66;100.00;97141.75;5055401;28;20029;-75
2021/08/26 02:09:09;;;;;;;22.80;12.95;;;;;;;17.65;100.00;97139.19;5061077;28;20522;-75
2021/08/26 02:11:35;;;;;;;19.92;13.75;;;;;;;17.61;100.00;97135.94;5054272;28;20025;-75
2021/08/26 02:14:00;;;;;;;21.85;13.38;;;;;;;17.72;100.00;97133.03;5046872;28;20024;-75
2021/08/26 02:16:26;;;;;;;17.67;12.20;;;;;;;17.61;100.00;97124.25;5048993;28;20033;-75
2021/08/26 02:18:51;;;;;;;23.00;13.57;;;;;;;17.61;100.00;97114.28;5074820;28;20116;-75
2021/08/26 02:21:17;;;;;;;21.77;13.27;;;;;;;17.55;100.00;97123.00;5075261;28;20107;-75
2021/08/26 02:23:42;;;;;;;20.95;14.10;;;;;;;17.53;100.00;97111.47;5057355;28;20020;-75
2021/08/26 02:26:08;;;;;;;17.60;11.82;;;;;;;17.32;100.00;97094.56;5075420;28;20506;-75
2021/08/26 02:28:34;;;;;;;18.25;12.23;;;;;;;17.40;100.00;97132.56;5053938;28;20033;-75
2021/08/26 02:30:59;;;;;;;19.02;12.70;;;;;;;17.43;100.00;97121.47;5057323;28;20024;-75
2021/08/26 02:33:25;;;;;;;18.05;12.30;;;;;;;17.42;100.00;97119.75;5075200;28;20016;-75
2021/08/26 02:35:50;;;;;;;21.05;12.45;;;;;;;17.34;100.00;97116.94;5075048;28;20029;-75
2021/08/26 02:38:16;;;;;;;17.08;12.07;;;;;;;17.38;100.00;97126.44;5075049;28;20380;-75
2021/08/26 02:40:41;;;;;;;16.35;11.43;;;;;;;17.33;100.00;97120.63;5053780;28;20439;-75
2021/08/26 02:43:07;;;;;;;18.70;11.05;;;;;;;17.37;100.00;97126.59;5037293;28;20493;-75
2021/08/26 02:45:32;;;;;;;17.10;11.07;;;;;;;17.32;100.00;97113.50;5055067;28;20527;-75
2021/08/26 02:47:58;;;;;;;22.70;11.70;;;;;;;17.28;100.00;97104.00;5054799;28;20021;-75
2021/08/26 02:50:24;;;;;;;23.45;12.40;;;;;;;17.29;100.00;97109.25;5038830;28;20021;-75
2021/08/26 02:52:49;;;;;;;19.35;11.50;;;;;;;17.22;100.00;97101.91;5054563;28;20024;-74
2021/08/26 02:55:15;;;;;;;25.42;11.93;;;;;;;17.21;100.00;97105.59;5037088;28;20033;-75
2021/08/26 02:57:40;;;;;;;21.00;11.80;;;;;;;17.17;100.00;97104.16;5037124;28;20033;-75
2021/08/26 03:00:07;;;;;;;20.83;11.43;;;;;;;17.15;100.00;97111.56;5036985;28;20033;-75
2021/08/26 03:02:32;;;;;;;29.33;13.07;;;;;;;17.08;100.00;97114.00;5036534;28;20029;-75
2021/08/26 03:04:58;;;;;;;31.23;13.07;;;;;;;17.17;100.00;97120.38;5052315;28;20033;-75
2021/08/26 03:07:24;;;;;;;20.67;13.38;;;;;;;17.15;100.00;97125.94;5037741;28;20036;-74
2021/08/26 03:09:49;;;;;;;24.08;13.20;;;;;;;17.15;100.00;97116.97;5036212;28;20044;-74
2021/08/26 03:12:15;;;;;;;27.25;14.13;;;;;;;17.17;100.00;97128.50;5036573;28;20029;-75
2021/08/26 03:14:40;;;;;;;20.67;13.55;;;;;;;17.11;100.00;97121.81;5041233;28;20109;-75
2021/08/26 03:17:06;;;;;;;21.92;13.60;;;;;;;17.01;100.00;97120.97;5053074;28;20511;-74
2021/08/26 03:19:31;;;;;;;19.05;12.98;;;;;;;17.12;100.00;97130.78;5074381;28;20506;-75
2021/08/26 03:21:57;;;;;;;25.92;13.30;;;;;;;17.18;100.00;97133.75;5039523;28;20078;-75
2021/08/26 03:24:22;;;;;;;19.23;12.77;;;;;;;17.18;100.00;97127.50;5056373;28;20033;-75
2021/08/26 03:26:48;;;;;;;23.80;13.68;;;;;;;17.21;100.00;97136.19;5056027;28;20032;-75
2021/08/26 03:29:15;;;;;;;19.90;12.73;;;;;;;17.21;100.00;97129.91;5055348;28;20110;-75
2021/08/26 03:31:40;;;;;;;19.15;12.90;;;;;;;17.29;100.00;97132.72;5036217;28;20458;-75
2021/08/26 03:34:06;;;;;;;18.50;13.20;;;;;;;17.33;100.00;97132.31;5071675;28;20052;-75
2021/08/26 03:36:31;;;;;;;21.42;12.23;;;;;;;17.43;100.00;97139.53;5074057;28;20055;-75
2021/08/26 03:38:57;;;;;;;24.60;14.52;;;;;;;17.32;100.00;97135.13;5073755;28;20086;-75
2021/08/26 03:41:23;;;;;;;31.25;14.95;;;;;;;17.38;100.00;97145.34;5039254;28;20032;-75
2021/08/26 03:43:49;;;;;;;26.90;12.38;;;;;;;17.41;100.00;97146.94;5039288;28;20033;-75
2021/08/26 03:46:15;;;;;;;19.95;11.27;;;;;;;17.40;100.00;97142.53;5054480;28;20047;-73
2021/08/26 03:48:40;;;;;;;20.63;12.00;;;;;;;17.32;100.00;97137.84;5071387;28;20028;-74
2021/08/26 03:51:06;;;;;;;15.25;11.80;;;;;;;17.34;100.00;97133.16;5071170;28;20060;-75
2021/08/26 03:53:31;;;;;;;15.90;11.10;;;;;;;17.30;100.00;97131.72;5073058;28;20024;-74
2021/08/26 03:55:57;;;;;;;17.67;10.77;;;;;;;17.28;100.00;97131.91;5072916;28;20028;-74
2021/08/26 03:58:23;;;;;;;21.25;12.20;;;;;;;17.24;100.00;97127.78;5073061;28;20021;-76
2021/08/26 04:00:48;;;;;;;23.15;11.68;;;;;;;17.26;100.00;97119.50;5055721;28;20028;-75
2021/08/26 04:03:14;;;;;;;18.90;11.68;;;;;;;17.33;100.00;97120.63;5036417;28;20491;-74
2021/08/26 04:05:39;;;;;;;21.00;12.93;;;;;;;17.35;100.00;97119.47;5055155;28;20121;-74
2021/08/26 04:08:05;;;;;;;17.08;12.15;;;;;;;17.39;100.00;97114.63;5036104;28;20029;-75
2021/08/26 04:10:31;;;;;;;24.88;15.40;;;;;;;17.25;100.00;97107.88;5055205;28;20024;-74
2021/08/26 04:12:57;;;;;;;19.00;12.65;;;;;;;17.33;100.00;97110.66;5051873;28;20484;-75
2021/08/26 04:15:23;;;;;;;20.17;11.85;;;;;;;17.44;100.00;97123.16;5054710;28;20035;-75
2021/08/26 04:17:48;;;;;;;20.30;11.48;;;;;;;17.51;100.00;97110.75;5072696;28;20502;-75
2021/08/26 04:20:14;;;;;;;19.73;13.02;;;;;;;17.46;100.00;97101.38;5054386;28;20024;-76
2021/08/26 04:22:39;;;;;;;22.27;13.48;;;;;;;17.51;100.00;97118.00;5050800;28;20040;-74
2021/08/26 04:25:06;;;;;;;25.67;14.18;;;;;;;17.50;100.00;97106.34;5069773;28;20050;-74
2021/08/26 04:27:39;;;;;;;20.25;12.80;;;;;;;17.60;100.00;97096.34;5054282;28;20020;-74
2021/08/26 04:30:06;;;;;;;25.15;14.73;;;;;;;17.74;100.00;97116.66;5050887;28;20032;-75
2021/08/26 04:32:32;;;;;;;22.63;14.10;;;;;;;17.86;100.00;97113.63;5029298;28;20047;-74
2021/08/26 04:34:57;;;;;;;19.00;12.98;;;;;;;18.03;100.00;97111.06;5037409;28;20060;-74
2021/08/26 04:37:23;;;;;;;20.17;12.48;;;;;;;18.23;100.00;97126.22;5071794;28;20081;-78
2021/08/26 04:39:48;;;;;;;19.15;12.65;;;;;;;18.23;100.00;97126.22;5054300;28;20035;-81
2021/08/26 04:42:14;;;;;;;21.50;13.18;;;;;;;18.24;100.00;97117.91;5037129;28;20028;-75
2021/08/26 04:44:39;;;;;;;33.05;14.40;;;;;;;18.34;100.00;97117.84;5037403;28;20021;-73
2021/08/26 04:47:05;;;;;;;21.40;12.90;;;;;;;18.39;100.00;97116.38;5072210;28;20453;-74
2021/08/26 04:49:31;;;;;;;19.67;12.55;;;;;;;18.58;100.00;97141.69;5071879;28;20506;-74
2021/08/26 04:51:57;;;;;;;25.80;12.75;;;;;;;18.56;100.00;97133.69;5071893;28;20024;-73
2021/08/26 04:54:22;;;;;;;23.70;12.68;;;;;;;18.64;100.00;97131.06;5071624;28;20024;-74
2021/08/26 04:56:48;;;;;;;16.60;10.75;;;;;;;18.58;100.00;97131.66;5037086;28;20511;-73
2021/08/26 04:59:13;;;;;;;15.50;11.38;;;;;;;18.68;100.00;97132.44;5071588;28;20465;-74
2021/08/26 05:01:39;;;;;;;16.15;10.73;;;;;;;18.71;100.00;97132.13;5053956;28;20025;-74
2021/08/26 05:04:05;;;;;;;20.23;11.07;;;;;;;18.64;100.00;97112.09;5071692;28;20055;-73
2021/08/26 05:06:34;;;;;;;18.77;11.57;;;;;;;18.77;100.00;97126.09;5071761;28;20030;-72
2021/08/26 05:08:59;;;;;;;17.08;11.93;;;;;;;18.86;100.00;97110.75;5053694;28;20059;-73
2021/08/26 05:11:25;;;;;;;20.75;12.18;;;;;;;19.05;100.00;97112.44;5036664;28;20025;-74
2021/08/26 05:13:50;;;;;;;20.95;12.18;;;;;;;19.15;100.00;97116.75;5053720;28;20021;-73
2021/08/26 05:16:16;;;;;;;17.13;11.57;;;;;;;19.34;100.00;97124.69;5071276;28;20105;-73
2021/08/26 05:18:42;;;;;;;27.60;13.82;;;;;;;19.54;100.00;97124.47;5053531;28;20051;-74
2021/08/26 05:21:07;;;;;;;19.88;12.48;;;;;;;19.55;100.00;97107.19;5033332;28;20063;-74
2021/08/26 05:23:34;;;;;;;20.15;12.48;;;;;;;19.87;100.00;97127.19;5071670;28;20020;-74
2021/08/26 05:25:59;;;;;;;27.63;13.50;;;;;;;19.96;100.00;97115.34;5050057;28;20033;-74
2021/08/26 05:28:25;;;;;;;24.58;13.63;;;;;;;20.03;100.00;97110.13;5051972;28;20400;-73
2021/08/26 05:30:50;;;;;;;23.17;12.43;;;;;;;20.15;100.00;97116.94;5071326;28;20104;-73
2021/08/26 05:33:16;;;;;;;20.95;12.95;;;;;;;20.24;100.00;97120.56;5035601;28;20111;-73
2021/08/26 05:35:42;;;;;;;26.17;17.63;;;;;;;20.10;100.00;97130.19;5071320;28;20035;-75
2021/08/26 05:38:07;;;;;;;18.55;12.80;;;;;;;20.00;100.00;97122.16;5053247;28;20025;-73
2021/08/26 05:40:33;;;;;;;22.80;12.95;;;;;;;19.90;100.00;97116.00;5053209;28;20031;-73
2021/08/26 05:42:58;;;;;;;21.92;13.07;;;;;;;19.99;100.00;97120.47;5053447;28;20040;-74
2021/08/26 05:45:24;;;;;;;22.05;12.50;;;;;;;19.83;100.00;97130.41;5053160;28;20098;-73
2021/08/26 05:47:55;;;;;;;20.23;12.63;;;;;;;20.02;100.00;97131.03;5053578;28;20456;-73
2021/08/26 05:50:22;;;;;;;19.15;12.77;;;;;;;19.97;100.00;97127.94;5051232;28;20408;-75
2021/08/26 05:52:48;;;;;;;18.35;11.95;;;;;;;19.90;100.00;97126.06;5071273;28;20032;-75
2021/08/26 05:55:13;;;;;;;18.55;11.27;;;;;;;20.00;100.00;97133.03;5071020;28;20032;-74
2021/08/26 05:57:39;;;;;;;18.15;12.48;;;;;;;19.84;100.00;97124.81;5033257;28;20481;-82
2021/08/26 06:00:05;;;;;;;21.92;13.68;;;;;;;19.75;100.00;97123.06;5032232;28;20119;-81
2021/08/26 06:02:31;;;;;;;18.23;12.30;;;;;;;19.79;100.00;97119.03;5053077;28;20484;-75
2021/08/26 06:04:56;;;;;;;22.48;14.05;;;;;;;19.61;100.00;97098.41;5070996;28;20157;-73
2021/08/26 06:07:22;;;;;;;23.77;14.23;;;;;;;19.79;100.00;97094.59;5036368;28;20119;-74
2021/08/26 06:09:48;;;;;;;19.63;12.07;;;;;;;20.01;100.00;97096.72;5053101;28;20052;-75
2021/08/26 06:12:13;;;;;;;23.42;13.57;;;;;;;20.26;100.00;97102.25;5071102;28;20494;-77
2021/08/26 06:14:39;;;;;;;26.95;12.77;;;;;;;20.42;100.00;97113.19;5053126;28;20031;-75
2021/08/26 06:17:05;;;;;;;23.85;12.30;;;;;;;20.41;100.00;97114.19;5071097;28;20097;-75
2021/08/26 06:19:30;;;;;;;17.67;12.85;;;;;;;20.64;100.00;97114.41;5060271;28;20222;-75
2021/08/26 06:21:56;;;;;;;21.33;13.32;;;;;;;20.99;98.69;97111.34;5051011;28;20040;-76
2021/08/26 06:24:21;;;;;;;17.73;11.75;;;;;;;21.49;92.61;97116.59;5047855;28;20037;-75
2021/08/26 06:26:47;;;;;;;19.27;10.98;;;;;;;24.11;78.82;97127.13;5050462;28;20033;-75
2021/08/26 06:29:12;;;;;;;19.23;10.65;;;;;;;26.54;65.10;97136.75;5034019;28;20035;-75
2021/08/26 06:31:39;;;;;;;16.98;10.95;;;;;;;27.77;61.18;97139.97;5049874;28;20039;-75
2021/08/26 06:34:04;;;;;;;17.27;11.30;;;;;;;28.93;55.04;97139.88;5047296;28;20029;-75
2021/08/26 06:36:30;;;;;;;23.17;12.13;;;;;;;29.41;52.75;97154.00;5048067;28;20106;-76
2021/08/26 06:38:58;;;;;;;18.65;11.70;;;;;;;28.63;54.52;97148.88;5030184;28;20032;-76
2021/08/26 06:41:23;;;;;;;22.48;11.20;;;;;;;28.15;55.51;97156.66;5046716;28;20063;-75
2021/08/26 06:43:49;;;;;;;18.80;11.75;;;;;;;28.87;53.31;97159.19;5050287;28;20064;-76
2021/08/26 06:46:15;;;;;;;23.05;11.80;;;;;;;28.86;54.19;97161.09;5036470;28;20115;-75
2021/08/26 06:48:40;;;;;;;25.15;12.00;;;;;;;29.46;52.46;97156.97;5071550;28;20056;-76
2021/08/26 06:51:06;;;;;;;28.13;14.23;;;;;;;28.67;54.26;97155.69;5037067;28;20028;-75
2021/08/26 06:53:31;;;;;;;28.92;15.50;;;;;;;27.51;56.83;97135.31;5020469;28;20048;-75
2021/08/26 06:55:57;;;;;;;27.58;13.93;;;;;;;26.63;60.42;97144.59;5071859;28;20131;-76
2021/08/26 06:58:22;;;;;;;23.23;12.57;;;;;;;25.81;65.07;97127.22;5071575;28;20058;-76
2021/08/26 07:00:48;;;;;;;24.75;16.55;;;;;;;25.32;68.21;97116.28;5071508;28;20512;-75
2021/08/26 07:03:13;;;;;;;40.80;27.52;;;;;;;25.46;68.42;97115.34;5054156;28;20059;-76
2021/08/26 07:05:42;;;;;;;33.83;23.88;;;;;;;25.23;68.48;97101.88;5053232;28;20067;-76
2021/08/26 07:08:07;;;;;;;20.48;13.02;;;;;;;26.07;65.19;97121.91;5036595;28;20031;-75
2021/08/26 07:10:33;;;;;;;17.08;11.50;;;;;;;26.32;63.18;97138.75;5042264;28;20021;-75
2021/08/26 07:12:58;;;;;;;21.67;12.20;;;;;;;26.12;64.59;97135.84;5036773;28;20020;-75
2021/08/26 07:15:25;;;;;;;21.08;11.75;;;;;;;28.18;55.08;97146.06;5053650;28;20507;-76
2021/08/26 07:17:51;;;;;;;19.05;11.90;;;;;;;28.17;54.72;97127.03;5052402;28;20052;-75
2021/08/26 07:20:17;;;;;;;15.75;12.30;;;;;;;25.50;63.13;97143.25;5036503;28;20024;-76
2021/08/26 07:22:42;;;;;;;20.58;12.13;;;;;;;25.56;64.40;97147.91;5053285;28;20138;-75
2021/08/26 07:25:08;;;;;;;18.80;11.68;;;;;;;25.65;63.97;97135.78;5053404;28;20051;-76
2021/08/26 07:27:34;;;;;;;15.80;11.40;;;;;;;25.55;63.75;97135.25;5071024;28;20033;-76
2021/08/26 07:29:59;;;;;;;15.70;10.85;;;;;;;26.13;62.18;97147.69;5053269;28;20039;-76
2021/08/26 07:32:25;;;;;;;15.32;10.10;;;;;;;27.25;57.67;97141.63;5053031;28;20462;-76
2021/08/26 07:34:50;;;;;;;33.55;21.95;;;;;;;28.04;55.04;97154.53;5053019;28;20028;-76
2021/08/26 07:37:16;;;;;;;59.42;40.58;;;;;;;28.38;53.49;97157.03;5053032;28;20032;-76
2021/08/26 07:39:41;;;;;;;16.80;11.40;;;;;;;27.95;53.99;97152.00;5070997;28;20040;-76
2021/08/26 07:42:07;;;;;;;20.70;10.57;;;;;;;27.23;55.37;97140.97;5070746;28;20024;-75
2021/08/26 07:44:33;;;;;;;23.05;11.98;;;;;;;26.87;56.92;97141.31;5052708;28;20031;-76
2021/08/26 07:46:58;;;;;;;19.13;11.35;;;;;;;26.83;58.12;97158.41;5070277;28;20029;-76
2021/08/26 07:49:24;;;;;;;17.83;11.30;;;;;;;27.27;57.17;97152.38;5070683;28;20415;-76
2021/08/26 07:51:49;;;;;;;16.48;10.65;;;;;;;28.50;52.89;97149.78;5052449;28;20059;-77
2021/08/26 07:54:15;;;;;;;18.58;11.65;;;;;;;29.99;49.22;97156.56;5035859;28;20036;-77
2021/08/26 07:56:40;;;;;;;15.80;11.63;;;;;;;28.52;51.32;97145.75;5069077;28;20180;-76
2021/08/26 07:59:06;;;;;;;17.95;11.63;;;;;;;28.97;51.11;97151.31;5035646;28;20031;-76
2021/08/26 08:01:31;;;;;;;17.00;10.93;;;;;;;29.14;50.90;97155.22;5049266;28;20029;-76
2021/08/26 08:03:57;;;;;;;15.20;10.80;;;;;;;28.18;52.43;97151.56;5051197;28;20121;-77
2021/08/26 08:06:23;;;;;;;13.23;9.63;;;;;;;27.14;54.51;97155.97;5070296;28;20361;-76
2021/08/26 08:08:49;;;;;;;14.25;9.75;;;;;;;27.85;53.50;97145.25;5046309;28;20045;-74
2021/08/26 08:11:15;;;;;;;25.17;11.15;;;;;;;27.73;54.29;97136.78;5049280;28;20054;-77
2021/08/26 08:13:41;;;;;;;18.85;9.65;;;;;;;27.48;54.82;97137.63;5032473;28;20476;-75
2021/08/26 08:16:07;;;;;;;20.40;11.45;;;;;;;27.25;56.05;97116.06;5048448;28;20033;-75
2021/08/26 08:18:32;;;;;;;22.30;10.13;;;;;;;27.64;54.40;97115.22;5048745;28;20028;-77
2021/08/26 08:20:58;;;;;;;16.58;10.52;;;;;;;27.10;55.46;97124.47;5049711;28;20040;-76
2021/08/26 08:23:23;;;;;;;12.85;10.00;;;;;;;26.83;56.71;97111.72;5049864;28;20055;-76
2021/08/26 08:25:49;;;;;;;23.50;10.68;;;;;;;27.69;54.45;97118.19;5049482;28;20070;-76
2021/08/26 08:28:16;;;;;;;13.32;9.57;;;;;;;27.96;52.97;97119.84;5049878;28;20033;-75
2021/08/26 08:30:42;;;;;;;14.65;9.90;;;;;;;28.52;50.88;97120.97;5048562;28;20476;-75
2021/08/26 08:33:09;;;;;;;13.15;9.50;;;;;;;28.86;50.01;97111.50;5048699;28;20041;-75
2021/08/26 08:35:34;;;;;;;14.93;9.27;;;;;;;29.51;48.80;97103.88;5048532;28;20535;-75
2021/08/26 08:38:00;;;;;;;14.35;10.30;;;;;;;30.37;46.55;97115.78;5046020;28;20104;-76
2021/08/26 08:40:25;;;;;;;12.02;9.15;;;;;;;31.15;44.07;97096.53;5048386;28;20470;-75
2021/08/26 08:42:52;;;;;;;13.30;8.88;;;;;;;31.72;42.88;97105.25;5049425;28;20075;-75
2021/08/26 08:45:18;;;;;;;17.33;9.70;;;;;;;31.71;43.01;97107.16;5031829;28;20090;-76
2021/08/26 08:47:47;;;;;;;16.15;11.32;;;;;;;31.96;42.31;97118.00;5048419;28;20401;-75
2021/08/26 08:50:13;;;;;;;11.55;9.27;;;;;;;31.34;42.76;97117.53;5047479;28;20047;-76
2021/08/26 08:52:40;;;;;;;13.07;9.23;;;;;;;29.78;45.89;97118.31;5044993;28;20030;-76
2021/08/26 08:55:10;;;;;;;11.43;9.00;;;;;;;28.86;48.36;97119.78;5030119;28;20037;-75
2021/08/26 08:57:36;;;;;;;13.15;9.73;;;;;;;28.20;50.33;97110.94;5048420;28;20070;-75
2021/08/26 09:00:16;;;;;;;18.05;9.40;;;;;;;27.99;50.60;97103.75;5047730;28;20037;-76
2021/08/26 09:02:42;;;;;;;13.10;8.73;;;;;;;27.56;52.68;97107.22;5044604;28;20037;-75
2021/08/26 09:05:07;;;;;;;17.25;9.45;;;;;;;27.25;53.90;97105.91;5029680;28;20029;-76
2021/08/26 09:07:34;;;;;;;25.50;13.38;;;;;;;27.32;54.50;97101.25;5047688;28;20507;-75
2021/08/26 09:10:00;;;;;;;38.90;15.93;;;;;;;27.11;55.06;97106.94;5044888;28;20421;-75
2021/08/26 09:12:41;;;;;;;15.50;10.18;;;;;;;26.87;55.13;97102.03;5028078;28;20045;-75
2021/08/26 09:15:12;;;;;;;24.27;17.13;;;;;;;26.37;57.75;97111.53;5045645;28;20040;-75
2021/08/26 09:17:39;;;;;;;11.98;9.20;;;;;;;26.52;56.58;97114.16;5048954;28;20033;-75
2021/08/26 09:20:07;;;;;;;17.98;10.73;;;;;;;25.89;58.73;97113.38;5028621;28;20041;-75
2021/08/26 09:22:32;;;;;;;24.63;10.10;;;;;;;25.88;59.39;97095.22;5047682;28;20108;-75
2021/08/26 09:24:58;;;;;;;19.83;11.13;;;;;;;25.04;62.13;97091.59;5031035;28;20120;-75
2021/08/26 09:27:45;;;;;;;20.27;11.77;;;;;;;24.62;65.09;97111.56;5047315;28;20028;-75
2021/08/26 09:30:13;;;;;;;14.38;10.80;;;;;;;24.61;65.82;97111.75;5045376;28;20099;-75
2021/08/26 09:32:44;;;;;;;14.68;10.23;;;;;;;24.71;65.73;97112.28;5046416;28;20108;-75
2021/08/26 09:35:23;;;;;;;16.70;9.75;;;;;;;24.58;65.94;97106.69;5028521;28;20020;-76
2021/08/26 09:37:54;;;;;;;31.80;12.25;;;;;;;24.96;64.91;97110.03;5047517;28;20451;-75
2021/08/26 09:40:23;;;;;;;24.55;13.07;;;;;;;25.10;64.18;97099.00;5046420;28;20148;-75
2021/08/26 09:42:59;;;;;;;20.67;9.32;;;;;;;25.13;63.59;97093.16;5043939;28;20052;-75
2021/08/26 09:45:27;;;;;;;20.17;9.50;;;;;;;25.34;62.31;97084.94;5046710;28;20027;-76
2021/08/26 09:48:05;;;;;;;17.02;8.48;;;;;;;25.64;61.14;97087.47;5042208;28;20476;-76
2021/08/26 09:50:56;;;;;;;14.20;8.88;;;;;;;25.90;59.77;97087.66;5041702;28;20102;-75
2021/08/26 09:53:31;;;;;;;15.40;8.63;;;;;;;25.93;59.03;97098.22;5028564;28;20462;-76
2021/08/26 09:56:06;;;;;;;10.80;8.05;;;;;;;26.04;58.56;97102.28;5047235;28;20519;-75
2021/08/26 10:01:23;;;;;;;13.60;9.40;;;;;;;25.99;59.26;97091.94;5031343;28;20060;-76
2021/08/26 10:03:50;;;;;;;17.48;9.55;;;;;;;25.83;61.42;97097.75;5014648;28;20514;-75
2021/08/26 10:06:17;;;;;;;18.35;10.13;;;;;;;25.60;61.50;97080.69;5046784;28;20052;-75
2021/08/26 10:08:46;;;;;;;12.32;9.20;;;;;;;25.33;62.64;97102.41;5046464;28;20045;-75
2021/08/26 10:11:18;;;;;;;13.27;9.05;;;;;;;25.15;63.54;97096.56;5063559;28;20032;-75
2021/08/26 10:13:44;;;;;;;16.15;9.80;;;;;;;25.19;62.84;97089.66;5047044;28;20025;-75
2021/08/26 10:16:10;;;;;;;15.05;10.02;;;;;;;25.20;62.60;97095.94;5047362;28;20116;-75
2021/08/26 10:18:36;;;;;;;26.75;14.93;;;;;;;25.41;61.89;97092.34;5028381;28;20072;-76
2021/08/26 10:21:03;;;;;;;46.17;30.20;;;;;;;25.66;61.51;97090.84;5051040;28;20436;-76
2021/08/26 10:23:29;;;;;;;19.08;10.70;;;;;;;26.27;59.61;97103.69;5036289;28;20064;-76
2021/08/26 10:25:58;;;;;;;24.52;12.30;;;;;;;26.85;58.64;97090.44;5054873;28;20024;-75
2021/08/26 10:28:23;;;;;;;14.30;9.25;;;;;;;27.62;54.93;97106.38;5054451;28;20033;-75
2021/08/26 10:30:49;;;;;;;13.13;8.68;;;;;;;27.63;54.12;97105.28;5053129;28;20503;-75
2021/08/26 10:33:16;;;;;;;19.95;9.85;;;;;;;28.28;52.18;97105.19;5053384;28;20024;-75
2021/08/26 10:35:50;;;;;;;13.60;9.57;;;;;;;28.49;52.38;97093.88;5054444;28;20024;-75
2021/08/26 10:38:25;;;;;;;15.40;9.23;;;;;;;28.91;50.46;97086.09;5053252;28;20020;-76
2021/08/26 10:40:51;;;;;;;12.70;8.65;;;;;;;29.55;48.71;97094.09;5054320;28;20057;-75
2021/08/26 10:43:38;;;;;;;14.13;8.70;;;;;;;30.44;46.46;97083.47;5054477;28;20112;-75
2021/08/26 10:46:06;;;;;;;9.98;6.45;;;;;;;30.91;46.39;97080.94;5033027;28;20026;-74
2021/08/26 10:48:32;;;;;;;7.95;5.80;;;;;;;32.86;42.09;97068.50;5045725;28;20028;-76
2021/08/26 10:51:15;;;;;;;13.60;7.47;;;;;;;35.65;36.38;97058.44;5051753;28;20033;-75
2021/08/26 10:53:45;;;;;;;10.77;6.38;;;;;;;37.50;33.23;97065.25;5036681;28;20021;-75
2021/08/26 10:56:25;;;;;;;8.40;5.55;;;;;;;37.20;32.85;97063.22;5053123;28;20079;-76
2021/08/26 10:59:00;;;;;;;7.43;4.90;;;;;;;37.45;31.80;97043.75;5051206;28;20023;-76
2021/08/26 11:01:28;;;;;;;6.43;4.50;;;;;;;37.31;31.28;97048.19;5054227;28;20051;-76
2021/08/26 11:03:56;;;;;;;6.15;5.07;;;;;;;35.86;32.54;97049.97;5054237;28;20033;-76
2021/08/26 11:06:24;;;;;;;6.60;5.70;;;;;;;35.13;34.05;97042.31;5052836;28;20448;-77
2021/08/26 11:08:53;;;;;;;7.03;5.25;;;;;;;35.64;33.07;97040.03;5061861;28;20114;-76
2021/08/26 11:11:28;;;;;;;5.10;4.60;;;;;;;35.22;33.97;97037.16;5056576;28;20020;-77
2021/08/26 11:14:14;;;;;;;6.65;5.05;;;;;;;33.52;36.72;97046.47;5073636;28;20400;-77
2021/08/26 11:16:42;;;;;;;6.93;5.47;;;;;;;32.40;38.67;97050.91;5055790;28;20025;-77
2021/08/26 11:19:08;;;;;;;7.13;5.72;;;;;;;31.85;39.41;97039.41;5056010;28;20406;-75
2021/08/26 11:21:42;;;;;;;8.25;6.57;;;;;;;30.57;41.62;97033.59;5073905;28;20028;-75